createdAt,value
2018-12-18T00:00:37.935Z,11.00
2018-12-18T00:05:44.904Z,11.77
2018-12-18T00:11:04.094Z,13.13
2018-12-18T00:16:10.391Z,12.70
2018-12-18T00:21:15.802Z,9.70
2018-12-18T00:26:21.007Z,11.23
2018-12-18T00:31:26.363Z,12.23
2018-12-18T00:36:32.512Z,11.90
2018-12-18T00:41:37.913Z,9.83
2018-12-18T00:46:43.546Z,11.03
2018-12-18T00:51:48.468Z,13.47
2018-12-18T00:56:53.415Z,10.03
2018-12-18T01:02:01.849Z,14.63
2018-12-18T01:07:07.250Z,13.13
2018-12-18T01:12:12.193Z,11.00
2018-12-18T01:17:17.228Z,13.50
2018-12-18T01:22:22.259Z,12.23
2018-12-18T01:27:27.265Z,13.00
2018-12-18T01:32:32.255Z,13.57
2018-12-18T01:37:37.326Z,15.43
2018-12-18T01:42:42.176Z,15.43
2018-12-18T01:47:47.169Z,11.80
2018-12-18T01:52:52.187Z,13.53
2018-12-18T01:57:57.121Z,11.30
2018-12-18T02:03:02.047Z,10.90
2018-12-18T02:08:07.131Z,14.00
2018-12-18T02:13:12.100Z,13.90
2018-12-18T02:18:17.352Z,13.63
2018-12-18T02:23:22.221Z,12.20
2018-12-18T02:28:27.335Z,14.83
2018-12-18T02:33:32.496Z,12.17
2018-12-18T02:38:38.503Z,12.50
2018-12-18T02:43:44.330Z,12.27
2018-12-18T02:48:49.549Z,14.47
2018-12-18T02:53:54.679Z,14.30
2018-12-18T02:58:59.634Z,14.23
2018-12-18T03:04:04.849Z,13.67
2018-12-18T03:09:10.075Z,13.23
2018-12-18T03:14:16.000Z,12.30
2018-12-18T03:19:20.984Z,10.93
2018-12-18T03:24:26.098Z,16.77
2018-12-18T03:29:31.105Z,10.47
2018-12-18T03:34:36.106Z,12.50
2018-12-18T03:39:41.217Z,15.20
2018-12-18T03:44:46.566Z,14.23
2018-12-18T03:49:52.119Z,12.97
2018-12-18T03:54:57.028Z,9.50
2018-12-18T04:00:02.147Z,11.27
2018-12-18T04:05:10.445Z,10.40
2018-12-18T04:10:15.491Z,16.40
2018-12-18T04:15:20.794Z,13.47
2018-12-18T04:20:26.019Z,12.77
2018-12-18T04:25:31.887Z,13.97
2018-12-18T04:30:36.863Z,12.83
2018-12-18T04:35:41.800Z,15.27
2018-12-18T04:40:47.570Z,12.67
2018-12-18T04:45:52.796Z,11.70
2018-12-18T04:50:57.812Z,11.87
2018-12-18T04:56:03.430Z,10.33
2018-12-18T05:01:08.666Z,13.50
2018-12-18T05:06:13.701Z,15.30
2018-12-18T05:11:18.674Z,14.30
2018-12-18T05:16:23.695Z,14.37
2018-12-18T05:21:28.881Z,15.30
2018-12-18T05:26:33.808Z,14.97
2018-12-18T05:31:38.861Z,15.00
2018-12-18T05:36:43.794Z,14.43
2018-12-18T05:41:48.837Z,15.30
2018-12-18T05:46:53.801Z,14.43
2018-12-18T05:52:05.517Z,17.33
2018-12-18T05:57:11.311Z,17.00
2018-12-18T06:02:16.216Z,12.70
2018-12-18T06:07:23.608Z,15.47
2018-12-18T06:12:28.596Z,14.47
2018-12-18T06:17:34.867Z,15.47
2018-12-18T06:22:41.178Z,13.97
2018-12-18T06:27:46.539Z,18.10
2018-12-18T06:32:52.516Z,15.53
2018-12-18T06:37:57.609Z,14.50
2018-12-18T06:43:03.808Z,14.40
2018-12-18T06:48:08.835Z,14.73
2018-12-18T06:53:14.027Z,13.50
2018-12-18T06:58:19.168Z,12.43
2018-12-18T07:03:24.399Z,17.73
2018-12-18T07:08:29.711Z,15.20
2018-12-18T07:13:34.752Z,17.17
2018-12-18T07:18:39.695Z,17.53
2018-12-18T07:23:44.704Z,16.17
2018-12-18T07:28:50.036Z,25.40
2018-12-18T07:33:55.229Z,15.20
2018-12-18T07:39:00.429Z,16.70
2018-12-18T07:44:07.234Z,15.40
2018-12-18T07:49:12.317Z,17.93
2018-12-18T07:54:17.260Z,16.73
2018-12-18T07:59:22.211Z,16.80
2018-12-18T08:04:27.212Z,18.37
2018-12-18T08:09:32.203Z,19.47
2018-12-18T08:14:37.172Z,14.00
2018-12-18T08:19:42.236Z,18.40
2018-12-18T08:24:47.193Z,19.80
2018-12-18T08:29:52.187Z,14.80
2018-12-18T08:34:57.277Z,17.20
2018-12-18T08:40:02.411Z,16.33
2018-12-18T08:45:09.574Z,18.43
2018-12-18T08:50:14.855Z,18.33
2018-12-18T08:55:20.193Z,16.37
2018-12-18T09:00:25.314Z,14.93
2018-12-18T09:05:30.379Z,14.60
2018-12-18T09:10:39.830Z,14.00
2018-12-18T09:16:00.419Z,16.90
2018-12-18T09:21:05.647Z,17.33
2018-12-18T09:26:12.060Z,16.87
2018-12-18T09:31:17.021Z,13.13
2018-12-18T09:36:22.327Z,14.80
2018-12-18T09:41:29.850Z,13.13
2018-12-18T09:46:34.849Z,12.77
2018-12-18T09:51:39.805Z,13.57
2018-12-18T09:56:50.398Z,15.43
2018-12-18T10:01:55.434Z,15.37
2018-12-18T10:07:00.383Z,14.60
2018-12-18T10:12:05.711Z,13.73
2018-12-18T10:17:11.020Z,10.63
2018-12-18T10:22:15.963Z,12.90
2018-12-18T10:27:21.318Z,9.37
2018-12-18T10:32:26.273Z,10.77
2018-12-18T10:37:31.595Z,10.17
2018-12-18T10:42:36.908Z,11.10
2018-12-18T10:47:43.070Z,11.77
2018-12-18T10:52:48.231Z,14.63
2018-12-18T10:57:53.408Z,14.40
2018-12-18T11:04:53.134Z,14.63
2018-12-18T11:09:58.101Z,11.87
2018-12-18T11:15:05.703Z,12.40
2018-12-18T11:20:10.699Z,11.90
2018-12-18T11:25:15.624Z,14.70
2018-12-18T11:30:20.829Z,11.47
2018-12-18T11:35:25.788Z,12.97
2018-12-18T11:40:30.816Z,12.63
2018-12-18T11:45:38.422Z,11.00
2018-12-18T11:50:43.848Z,12.20
2018-12-18T11:55:49.349Z,10.70
2018-12-18T12:00:54.423Z,14.67
2018-12-18T12:06:00.037Z,12.13
2018-12-18T12:11:06.289Z,14.20
2018-12-18T12:16:11.411Z,14.03
2018-12-18T12:21:16.245Z,9.77
2018-12-18T12:26:26.342Z,12.30
2018-12-18T12:31:31.331Z,14.63
2018-12-18T12:36:36.583Z,16.73
2018-12-18T12:41:41.523Z,13.10
2018-12-18T12:46:46.692Z,15.10
2018-12-18T12:51:51.890Z,10.73
2018-12-18T12:56:56.913Z,12.37
2018-12-18T13:02:02.319Z,14.97
2018-12-18T13:07:07.655Z,17.30
2018-12-18T13:12:13.099Z,11.40
2018-12-18T13:17:18.338Z,8.70
2018-12-18T13:22:23.881Z,13.93
2018-12-18T13:27:29.416Z,9.60
2018-12-18T13:32:36.262Z,7.97
2018-12-18T13:37:41.591Z,8.77
2018-12-18T13:42:47.376Z,10.27
2018-12-18T13:47:52.332Z,8.80
2018-12-18T13:52:57.834Z,9.53
2018-12-18T13:58:04.014Z,9.23
2018-12-18T14:03:09.315Z,8.20
2018-12-18T14:08:14.354Z,15.03
2018-12-18T14:13:19.290Z,15.10
2018-12-18T14:18:25.557Z,13.67
2018-12-18T14:23:30.782Z,13.00
2018-12-18T14:28:35.943Z,13.63
2018-12-18T14:38:52.638Z,12.10
2018-12-18T14:43:57.656Z,32.20
2018-12-18T14:49:02.723Z,18.37
2018-12-18T14:54:09.664Z,30.50
2018-12-18T14:59:16.230Z,26.17
2018-12-18T15:04:21.226Z,19.77
2018-12-18T15:09:26.790Z,21.43
2018-12-18T15:14:31.721Z,26.10
2018-12-18T15:19:36.649Z,32.20
2018-12-18T15:24:41.743Z,30.07
2018-12-18T15:29:47.077Z,32.73
2018-12-18T15:34:51.994Z,40.47
2018-12-18T15:39:57.198Z,38.93
2018-12-18T15:45:02.438Z,38.63
2018-12-18T15:50:09.280Z,38.57
2018-12-18T15:55:14.799Z,38.40
2018-12-18T16:00:19.827Z,31.43
2018-12-18T16:05:25.675Z,39.53
2018-12-18T16:10:38.880Z,36.90
2018-12-18T16:15:44.622Z,40.40
2018-12-18T16:20:49.713Z,45.97
2018-12-18T16:25:55.797Z,40.07
2018-12-18T16:31:00.878Z,49.57
2018-12-18T16:36:06.789Z,44.73
2018-12-18T16:41:12.623Z,45.40
2018-12-18T16:46:18.135Z,26.50
2018-12-18T16:51:25.201Z,31.27
2018-12-18T16:56:31.445Z,45.43
2018-12-18T17:01:36.543Z,31.80
2018-12-18T17:06:41.560Z,22.30
2018-12-18T17:11:46.707Z,36.80
2018-12-18T17:16:52.524Z,57.37
2018-12-18T17:21:58.891Z,42.40
2018-12-18T17:27:04.609Z,42.30
2018-12-18T17:32:11.757Z,33.37
2018-12-18T17:37:16.809Z,32.90
2018-12-18T17:42:22.076Z,34.03
2018-12-18T17:47:27.102Z,23.77
2018-12-18T17:52:33.377Z,19.67
2018-12-18T17:57:39.728Z,33.40
2018-12-18T18:02:45.123Z,29.20
2018-12-18T18:07:51.431Z,32.47
2018-12-18T18:18:08.117Z,33.43
2018-12-18T18:23:13.442Z,39.13
2018-12-18T18:28:21.010Z,40.03
2018-12-18T18:33:26.129Z,42.77
2018-12-18T18:38:31.941Z,45.53
2018-12-18T18:43:37.098Z,49.47
2018-12-18T18:48:43.640Z,54.93
2018-12-18T18:53:50.336Z,53.40
2018-12-18T18:59:00.589Z,51.67
2018-12-18T19:04:06.892Z,51.83
2018-12-18T19:09:12.083Z,46.67
2018-12-18T19:14:21.769Z,44.97
2018-12-18T19:19:28.147Z,46.90
2018-12-18T19:24:35.460Z,44.50
2018-12-18T19:29:42.982Z,45.30
2018-12-18T19:34:49.396Z,45.87
2018-12-18T19:39:59.743Z,55.13
2018-12-18T19:45:11.627Z,47.87
2018-12-18T19:50:18.477Z,43.57
2018-12-18T19:55:24.103Z,41.87
2018-12-18T20:00:32.220Z,51.90
2018-12-18T20:05:38.473Z,50.77
2018-12-18T20:10:47.795Z,47.10
2018-12-18T20:15:55.000Z,40.50
2018-12-18T20:21:04.271Z,52.13
2018-12-18T20:26:12.051Z,49.87
2018-12-18T20:31:19.017Z,47.00
2018-12-18T20:36:29.531Z,49.20
2018-12-18T20:41:35.294Z,43.57
2018-12-18T20:46:41.736Z,47.53
2018-12-18T20:51:59.607Z,46.83
2018-12-18T20:57:06.669Z,39.13
2018-12-18T21:02:13.670Z,35.77
2018-12-18T21:07:19.472Z,33.30
2018-12-18T21:12:25.696Z,34.53
2018-12-18T21:17:33.627Z,34.63
2018-12-18T21:22:39.129Z,30.43
2018-12-18T21:27:45.087Z,30.57
2018-12-18T21:32:50.822Z,30.20
2018-12-18T21:37:56.834Z,32.77
2018-12-18T21:43:02.095Z,31.20
2018-12-18T21:48:08.543Z,37.27
2018-12-18T21:53:14.144Z,31.63
2018-12-18T21:58:20.234Z,32.40
2018-12-18T22:03:26.963Z,33.20
2018-12-18T22:08:36.791Z,30.97
2018-12-18T22:13:41.965Z,31.97
2018-12-18T22:18:48.370Z,35.30
2018-12-18T22:23:53.415Z,32.37
2018-12-18T22:28:58.359Z,33.20
2018-12-18T22:34:04.453Z,31.30
2018-12-18T22:39:09.826Z,33.03
2018-12-18T22:44:14.979Z,39.03
2018-12-18T22:49:21.071Z,31.97
2018-12-18T22:54:26.363Z,35.67
2018-12-18T22:59:31.656Z,31.40
2018-12-18T23:04:37.548Z,29.90
2018-12-18T23:20:06.457Z,33.93
2018-12-18T23:25:11.460Z,31.73
2018-12-18T23:30:17.509Z,26.27
2018-12-18T23:35:22.518Z,32.77
2018-12-18T23:40:27.503Z,31.10
2018-12-18T23:45:32.788Z,29.20
2018-12-18T23:50:38.204Z,30.97
2018-12-18T23:55:43.498Z,32.93
